Pagina principale
METAR-TAF:

METAR-TAF

Aeroporti :

Aeroporto di Ekaterinburg-Kol'covo

Ekaterinburg, Russia

latitudine: 56-50N, longitudine: 060-38E, altezza: 237 m

Osservazione

Il bollettino è stato emesso 31 minuti fa, alle 23:00 UTC
Vento 10 kt da nord
Temperature 11°C
Umidità 54%
Pressione 1013 hPa
Visibilità 10 km o più
Nuvoloso ad un'altezza di 3100 ft

METAR: USSS 242300Z 35005MPS 9999 BKN031 11/02 Q1013 R26R/220050 R26L/220050 NOSIG RMK QFE739/0986

Ora: 04:31 (23:31 UTC)

Previsione

Il bollettino è stato emesso 3 ore e 32 minuti fa, alle 19:59 UTC
Previsione valida dal 24 alle 21 UTC al 25 alle 21 UTC
Vento 10 kt da nord-ovest
Visibilità 10 km o più
Nubi sparse ad un'altezza di 1500 ft
Nuvoloso ad un'altezza di 3000 ft, Cumulonembo.
Evoluzione graduale
dal 24 alle 23 UTC al 25 alle 01 UTC
Vento 12 kt da nord

TAF: USSS 241959Z 2421/2521 32005MPS 9999 SCT015 BKN030CB BECMG 2423/2501 01006MPS

Osservazioni e previsioni meteorologiche di più di 4000 aeroporti (messaggi METAR e TAF).

Le stazioni disponibili sono rappresentate dai dischi gialli e rossi sulla carta.

Puntare il mouse per vedere il nome della stazione.

Clicca sopra per visualizzare le osservazioni e previsioni meteorologiche.

Per cambiare la mappa : fare clic sui pulsanti verdi con una croce nera per ingrandire, il pulsante verde con un trattino per diminuire, o sulla freccia verde per le mappe adiacenti.


METAR-TAF: